Flight Information

DEPARTURE
SANTA MARIA, CA
Elevation:
261
Runways:
2/20 - 5199x75 - ASPH-G
12/30 - 8004x150 - ASPH-G
ATIS:
121.15 805-347-9136
Ground:
121.9
Tower:
118.3
DESTINATION
,
Elevation:
TPA:
1000 (est.)


6873.7 NM71° True-14° Var57° HDG

Flight Plan:
(click to file on line)

1. Type
2. Aircraft Identification
3. Aircraft Type / Special Equipment
4. True Airspeed
kts
5. Departure Airport
(ICAO code)
6. Arriving Airport
(ICAO code)
7. Cruising Altitude
ft
8. Alternate Airport
(ICAO code)
9. Route of Flight
10. Remarks


00:00:00 Departure ATIS: Destination ATIS:

Clearance Limit:
Route:
Altitude: Expect in minutes
Frequency:
Transponder: (7500 Hijack / 7600 Lost Comms / 7700 Emergency)


KSMX 281151Z AUTO 06003KT 3/4SM R12/5500VP6000FT BR VV002 16/14 A2990 RMK AO2 SLP126 T01560144 10172 20150 56003
Time: 2020-09-28T11:51:00Z
1601296999
Winds: 60 @ 3 kts
Visibility: 0.75 sm
Clouds (AGL): OVX 0
Temperature: 15.6 C
Dew Point: 14.4 C
Pressure: 29.899607 in Hgbr


Notes:

Data extracted from FAA Digital Chart Supplement. Effective: 0901Z Thursday, Sep 10, 2020 to 0901Z Thursday, Nov 5, 2020
Current ATIS data is provided courtisy of PilotEdge.